createdAt,value
2022-11-06T00:04:43.992Z,5.47
2022-11-06T00:09:47.645Z,5.37
2022-11-06T00:14:52.697Z,5.37
2022-11-06T00:19:56.401Z,5.25
2022-11-06T00:25:00.130Z,5.15
2022-11-06T00:30:06.095Z,6.03
2022-11-06T00:35:09.953Z,4.82
2022-11-06T00:40:14.807Z,5.85
2022-11-06T00:45:19.809Z,4.75
2022-11-06T00:50:26.413Z,4.15
2022-11-06T00:55:30.245Z,4.07
2022-11-06T01:00:35.301Z,4.62
2022-11-06T01:05:39.066Z,4.30
2022-11-06T01:10:42.710Z,3.10
2022-11-06T01:15:47.726Z,4.35
2022-11-06T01:20:51.424Z,3.67
2022-11-06T01:25:59.161Z,4.60
2022-11-06T01:31:05.634Z,4.55
2022-11-06T01:36:10.753Z,4.55
2022-11-06T01:41:15.654Z,3.72
2022-11-06T01:46:22.857Z,3.75
2022-11-06T01:51:29.170Z,3.97
2022-11-06T01:56:33.257Z,3.20
2022-11-06T02:01:38.624Z,3.40
2022-11-06T02:06:42.641Z,2.90
2022-11-06T02:11:52.139Z,3.83
2022-11-06T02:17:09.802Z,2.87
2022-11-06T02:22:34.516Z,3.13
2022-11-06T02:27:42.493Z,3.10
2022-11-06T02:32:52.068Z,3.20
2022-11-06T02:37:59.749Z,3.25
2022-11-06T02:43:08.999Z,2.90
2022-11-06T02:48:15.742Z,3.10
2022-11-06T02:53:23.930Z,2.78
2022-11-06T02:58:32.720Z,2.92
2022-11-06T03:03:41.488Z,3.33
2022-11-06T03:08:50.448Z,3.22
2022-11-06T03:13:59.405Z,3.22
2022-11-06T03:19:08.936Z,3.50
2022-11-06T03:24:18.105Z,3.03
2022-11-06T03:29:29.529Z,2.95
2022-11-06T03:34:40.718Z,3.70
2022-11-06T03:39:49.750Z,2.78
2022-11-06T03:44:59.337Z,3.33
2022-11-06T03:50:07.873Z,3.15
2022-11-06T03:55:15.932Z,2.90
2022-11-06T04:00:21.466Z,3.10
2022-11-06T04:05:25.857Z,3.65
2022-11-06T04:10:49.402Z,2.75
2022-11-06T04:15:55.150Z,2.55
2022-11-06T04:21:24.942Z,2.58
2022-11-06T04:26:36.996Z,2.85
2022-11-06T04:31:48.648Z,3.42
2022-11-06T04:37:01.148Z,2.85
2022-11-06T04:42:12.387Z,2.65
2022-11-06T04:47:20.230Z,2.70
2022-11-06T04:52:27.324Z,2.70
2022-11-06T04:57:30.966Z,3.10
2022-11-06T05:02:35.997Z,2.97
2022-11-06T05:07:39.982Z,3.25
2022-11-06T05:12:43.762Z,2.90
2022-11-06T05:17:48.827Z,2.87
2022-11-06T05:23:01.601Z,2.72
2022-11-06T05:28:08.096Z,2.85
2022-11-06T05:33:13.103Z,2.87
2022-11-06T05:38:16.901Z,2.62
2022-11-06T05:43:20.644Z,2.45
2022-11-06T05:48:25.606Z,3.28
2022-11-06T05:53:29.322Z,3.28
2022-11-06T05:58:33.485Z,3.42
2022-11-06T06:03:38.616Z,2.95
2022-11-06T06:08:42.341Z,3.53
2022-11-06T06:13:46.117Z,3.03
2022-11-06T06:18:51.796Z,3.28
2022-11-06T06:23:55.587Z,4.22
2022-11-06T06:28:59.510Z,3.40
2022-11-06T06:34:04.536Z,4.00
2022-11-06T06:39:08.387Z,3.83
2022-11-06T06:44:12.159Z,3.45
2022-11-06T06:49:17.214Z,3.08
2022-11-06T06:54:20.951Z,2.90
2022-11-06T06:59:24.654Z,3.58
2022-11-06T07:04:29.696Z,2.83
2022-11-06T07:09:33.624Z,3.37
2022-11-06T07:14:37.365Z,2.72
2022-11-06T07:19:42.448Z,3.35
2022-11-06T07:24:46.164Z,2.72
2022-11-06T07:29:49.980Z,3.12
2022-11-06T07:34:55.063Z,2.60
2022-11-06T07:39:58.759Z,3.45
2022-11-06T07:45:02.622Z,2.40
2022-11-06T07:50:08.634Z,2.90
2022-11-06T07:55:12.450Z,2.78
2022-11-06T08:00:16.675Z,2.92
2022-11-06T08:05:21.924Z,2.10
2022-11-06T08:10:25.559Z,2.78
2022-11-06T08:15:29.465Z,2.17
2022-11-06T08:20:34.806Z,2.35
2022-11-06T08:25:39.120Z,2.20
2022-11-06T08:30:42.817Z,1.52
2022-11-06T08:35:48.353Z,2.20
2022-11-06T08:40:53.753Z,2.87
2022-11-06T08:45:57.677Z,2.30
2022-11-06T08:51:03.003Z,2.30
2022-11-06T08:56:07.454Z,2.45
2022-11-06T09:01:11.669Z,1.95
2022-11-06T09:06:16.727Z,2.42
2022-11-06T09:11:20.613Z,2.30
2022-11-06T09:16:26.261Z,1.80
2022-11-06T09:21:31.319Z,1.75
2022-11-06T09:26:35.066Z,1.73
2022-11-06T09:31:38.757Z,2.22
2022-11-06T09:36:43.804Z,1.90
2022-11-06T09:41:58.174Z,1.40
2022-11-06T09:47:05.424Z,1.42
2022-11-06T09:52:18.918Z,1.40
2022-11-06T09:57:29.478Z,2.00
2022-11-06T10:02:39.098Z,1.58
2022-11-06T10:07:46.777Z,2.80
2022-11-06T10:13:05.814Z,1.83
2022-11-06T10:18:18.697Z,2.17
2022-11-06T10:23:31.278Z,2.58
2022-11-06T10:28:54.181Z,1.58
2022-11-06T10:34:03.647Z,2.12
2022-11-06T10:39:16.623Z,2.10
2022-11-06T10:44:25.357Z,2.40
2022-11-06T10:49:37.140Z,2.08
2022-11-06T10:54:56.382Z,1.87
2022-11-06T11:00:00.264Z,1.70
2022-11-06T11:05:11.515Z,1.70
2022-11-06T11:10:31.308Z,1.48
2022-11-06T11:15:44.594Z,1.77
2022-11-06T11:20:49.613Z,1.48
2022-11-06T11:25:56.986Z,1.45
2022-11-06T11:31:07.441Z,1.80
2022-11-06T11:36:11.448Z,2.10
2022-11-06T11:41:25.147Z,1.80
2022-11-06T11:46:28.875Z,1.45
2022-11-06T11:51:36.510Z,1.50
2022-11-06T11:57:04.109Z,1.83
2022-11-06T12:02:20.859Z,1.85
2022-11-06T12:07:30.366Z,1.70
2022-11-06T12:12:37.012Z,1.67
2022-11-06T12:17:42.486Z,1.70
2022-11-06T12:22:49.501Z,2.30
2022-11-06T12:27:59.236Z,1.77
2022-11-06T12:33:11.443Z,1.40
2022-11-06T12:38:25.441Z,1.42
2022-11-06T12:43:38.497Z,1.42
2022-11-06T12:49:00.562Z,1.70
2022-11-06T12:54:16.516Z,1.42
2022-11-06T12:59:38.271Z,1.98
2022-11-06T13:04:56.375Z,1.60
2022-11-06T13:10:12.505Z,1.60
2022-11-06T13:15:28.288Z,2.37
2022-11-06T13:20:41.290Z,1.58
2022-11-06T13:25:51.800Z,1.55
2022-11-06T13:30:58.882Z,1.90
2022-11-06T13:36:03.523Z,1.85
2022-11-06T13:41:13.730Z,1.80
2022-11-06T13:46:28.899Z,1.90
2022-11-06T13:51:43.815Z,2.78
2022-11-06T13:57:13.775Z,2.78
2022-11-06T14:02:38.101Z,2.05
2022-11-06T14:07:43.587Z,2.28
2022-11-06T14:12:48.455Z,2.08
2022-11-06T14:17:58.004Z,1.80
2022-11-06T14:23:46.361Z,2.17
2022-11-06T14:28:50.168Z,2.00
2022-11-06T14:34:03.398Z,2.47
2022-11-06T14:39:11.974Z,1.98
2022-11-06T14:44:44.822Z,2.92
2022-11-06T14:49:54.134Z,2.40
2022-11-06T14:55:05.225Z,2.25
2022-11-06T15:00:15.177Z,2.28
2022-11-06T15:05:21.247Z,2.40
2022-11-06T15:10:54.655Z,2.50
2022-11-06T15:16:04.481Z,2.42
2022-11-06T15:21:17.329Z,2.05
2022-11-06T15:26:26.451Z,2.50
2022-11-06T15:31:31.990Z,3.05
2022-11-06T15:36:41.481Z,2.37
2022-11-06T15:41:45.520Z,3.62
2022-11-06T15:46:56.616Z,2.83
2022-11-06T15:52:03.299Z,2.70
2022-11-06T15:57:16.833Z,4.00
2022-11-06T16:02:23.303Z,3.40
2022-11-06T16:07:29.363Z,2.83
2022-11-06T16:12:33.241Z,2.00
2022-11-06T16:17:36.977Z,2.55
2022-11-06T16:22:42.487Z,1.90
2022-11-06T16:27:46.270Z,2.67
2022-11-06T16:32:50.358Z,2.28
2022-11-06T16:38:12.654Z,2.72
2022-11-06T16:43:21.933Z,2.58
2022-11-06T16:48:32.262Z,3.67
2022-11-06T16:53:51.092Z,3.30
2022-11-06T16:58:59.290Z,2.10
2022-11-06T17:09:28.831Z,2.12
2022-11-06T17:14:33.049Z,2.85
2022-11-06T17:19:36.790Z,2.30
2022-11-06T17:24:41.798Z,2.30
2022-11-06T17:29:45.496Z,3.37
2022-11-06T17:34:49.225Z,2.45
2022-11-06T17:39:54.331Z,2.90
2022-11-06T17:44:58.171Z,2.42
2022-11-06T17:50:01.968Z,3.03
2022-11-06T17:55:07.734Z,3.05
2022-11-06T18:00:12.868Z,3.22
2022-11-06T18:05:18.630Z,3.40
2022-11-06T18:10:27.557Z,2.62
2022-11-06T18:15:34.436Z,2.90
2022-11-06T18:20:38.136Z,3.42
2022-11-06T18:25:43.577Z,3.67
2022-11-06T18:30:48.938Z,3.40
2022-11-06T18:35:53.129Z,3.42
2022-11-06T18:40:58.236Z,3.10
2022-11-06T18:46:04.926Z,3.50
2022-11-06T18:51:09.778Z,3.92
2022-11-06T18:56:16.836Z,4.05
2022-11-06T19:01:21.414Z,3.75
2022-11-06T19:06:25.328Z,4.43
2022-11-06T19:11:30.995Z,5.87
2022-11-06T19:16:34.874Z,4.43
2022-11-06T19:21:40.492Z,4.85
2022-11-06T19:26:45.639Z,5.10
2022-11-06T19:31:49.508Z,5.10
2022-11-06T19:36:54.301Z,4.65
2022-11-06T19:42:01.150Z,5.12
2022-11-06T19:47:05.095Z,4.50
2022-11-06T19:52:42.786Z,5.45
2022-11-06T19:57:34.296Z,5.57
2022-11-06T20:02:38.055Z,6.28
2022-11-06T20:07:42.541Z,5.40
2022-11-06T20:12:47.708Z,5.60
2022-11-06T20:17:51.719Z,5.03
2022-11-06T20:22:55.550Z,4.95
2022-11-06T20:28:00.653Z,4.57
2022-11-06T20:33:04.542Z,5.37
2022-11-06T20:38:08.782Z,6.03
2022-11-06T20:43:14.126Z,5.07
2022-11-06T20:48:18.024Z,5.80
2022-11-06T20:53:21.974Z,5.90
2022-11-06T20:58:27.802Z,5.35
2022-11-06T21:03:31.956Z,5.57
2022-11-06T21:08:38.084Z,5.22
2022-11-06T21:13:43.574Z,5.47
2022-11-06T21:18:48.454Z,5.72
2022-11-06T21:23:53.215Z,4.87
2022-11-06T21:28:58.312Z,5.25
2022-11-06T21:34:03.391Z,5.37
2022-11-06T21:39:09.214Z,5.43
2022-11-06T21:44:16.666Z,5.03
2022-11-06T21:49:20.513Z,5.43
2022-11-06T21:54:41.311Z,4.32
2022-11-06T21:59:46.315Z,4.00
2022-11-06T22:04:49.991Z,4.78
2022-11-06T22:09:53.715Z,4.65
2022-11-06T22:14:58.818Z,3.87
2022-11-06T22:20:03.296Z,5.07
2022-11-06T22:25:07.747Z,4.93
2022-11-06T22:30:14.051Z,4.10
2022-11-06T22:35:18.030Z,4.18
2022-11-06T22:40:21.934Z,4.28
2022-11-06T22:45:26.971Z,3.53
2022-11-06T22:50:30.716Z,3.90
2022-11-06T22:55:35.057Z,3.60
2022-11-06T23:00:40.161Z,3.00
2022-11-06T23:05:43.912Z,3.37
2022-11-06T23:10:47.933Z,4.05
2022-11-06T23:16:02.810Z,3.42
2022-11-06T23:21:13.218Z,3.50
2022-11-06T23:26:18.759Z,3.20
2022-11-06T23:31:24.051Z,3.58
2022-11-06T23:36:27.738Z,3.58
2022-11-06T23:41:46.728Z,3.83
2022-11-06T23:46:52.852Z,4.15
2022-11-06T23:51:56.590Z,3.17
2022-11-06T23:57:00.485Z,3.05
